Charleston Air Force Base-International Airport
KCHS : now visible

Airfield :











YOU CAN JOIN US ON...

 
LOGIN :

Register | Disclaimer

   EN    FR    IT 

 









Legend :    VFR   Marginal VFR   IFR   Intensive IFR   Very Intensive IFR
Visi :
Ceiling :
>= 8 km
>= 3000ft
5 to 8 km
1000 to 3000 ft
1500m to 5 km
500 to 1000 ft
800 to 1500m
200 to 500 ft
< 800m
< 200 ft
Symbols :   Thunderstorms  Fog  Heavy snow  Heavy precipitations  Wind > 20 kt






- Airport Elevation : 46 ft
- IATA code : CHS


KCHS - Charleston Air Force Base-International

CURRENT METAR :
  • 212356Z 33012G18KT 10SM -RA BKN009 BKN015 OVC029 14/12 A2992 RMK AO2 CIG 006V012 PRESRR SLP130 P0002 60021 T01390117 10206 20139 53018

EXPIRED METARs :
  • 212322Z 02014G19KT 8SM -RA FEW009 BKN014 OVC027 14/12 A2987 RMK AO2 P0001 T01390117
  • 212256Z 01010G19KT 8SM -RA BKN011 BKN027 OVC049 14/12 A2989 RMK AO2 SLP122 P0008 T01390117
  • 212156Z 35010KT 10SM -RA FEW014 BKN028 OVC039 15/12 A2988 RMK AO2 SLP119 P0008 T01500122
  • 212056Z 36008KT 5SM RA BKN026 BKN049 OVC070 16/13 A2986 RMK AO2 RAB06 SLP112 P0002 60003 T01610133 55006
  • 211956Z 02009KT 10SM BKN024 OVC065 18/13 A2985 RMK AO2 RAB00E36 SLP106 P0001 T01780133

TAF KCHS
Valid from the 22 at 00:00 until the 23 at 00:00 UTC


212357Z 2200/2224 35010G16KT P6SM SCT009 OVC015
TEMPO 2200/2204 OVC009
FM220700 01009KT P6SM SCT015 OVC025
FM221100 01010KT P6SM SCT025 BKN040
FM221600 01011G18KT P6SM BKN050
KZJX FIR / North America



MET'MAP, your aeronautical weather chart ! - Copyright ORBIFLY December 2007 - Disclaimer

ORBIFLY MET'MAP TEAM :

Programming & Development : Alexandra Zaïnal
Original concept : Baudouin d'Aumeries
Technical & hardware support : Manuel Goepfert
Assistance : Marc-Olivier Méhu




SOURCES & CREDITS :

   NOAA       Earth
Advisory